createdAt,value
2023-02-09T00:01:47.341Z,14.50
2023-02-09T00:04:48.959Z,15.37
2023-02-09T00:07:50.787Z,15.03
2023-02-09T00:10:52.400Z,15.63
2023-02-09T00:13:53.979Z,15.57
2023-02-09T00:16:55.584Z,16.60
2023-02-09T00:19:57.286Z,16.20
2023-02-09T00:22:58.904Z,17.93
2023-02-09T00:26:01.113Z,16.97
2023-02-09T00:29:03.077Z,15.77
2023-02-09T00:32:04.843Z,15.77
2023-02-09T00:35:07.898Z,16.33
2023-02-09T00:38:10.511Z,15.57
2023-02-09T00:41:12.941Z,15.47
2023-02-09T00:44:14.687Z,14.73
2023-02-09T00:47:16.329Z,14.83
2023-02-09T00:50:18.176Z,14.73
2023-02-09T00:53:20.414Z,15.87
2023-02-09T00:56:22.180Z,15.53
2023-02-09T00:59:23.811Z,14.00
2023-02-09T01:02:25.510Z,17.03
2023-02-09T01:05:27.924Z,15.67
2023-02-09T01:08:29.543Z,17.20
2023-02-09T01:11:31.164Z,18.43
2023-02-09T01:14:32.911Z,17.00
2023-02-09T01:17:34.764Z,16.90
2023-02-09T01:20:36.423Z,18.73
2023-02-09T01:23:38.078Z,20.30
2023-02-09T01:26:39.942Z,17.30
2023-02-09T01:29:41.627Z,12.50
2023-02-09T01:32:43.363Z,14.90
2023-02-09T01:35:45.076Z,13.90
2023-02-09T01:38:46.808Z,13.80
2023-02-09T01:41:48.740Z,14.53
2023-02-09T01:45:04.676Z,14.37
2023-02-09T01:48:06.392Z,15.23
2023-02-09T01:51:08.100Z,15.00
2023-02-09T01:54:14.981Z,16.47
2023-02-09T01:57:22.166Z,17.33
2023-02-09T02:00:24.757Z,17.33
2023-02-09T02:03:27.981Z,15.67
2023-02-09T02:06:30.295Z,17.30
2023-02-09T02:09:32.163Z,15.20
2023-02-09T02:12:34.180Z,14.00
2023-02-09T02:15:55.332Z,13.27
2023-02-09T02:19:15.890Z,11.67
2023-02-09T02:22:36.636Z,11.20
2023-02-09T02:25:50.523Z,12.73
2023-02-09T02:28:55.245Z,12.50
2023-02-09T02:32:09.956Z,13.73
2023-02-09T02:35:23.646Z,11.90
2023-02-09T02:38:40.540Z,14.00
2023-02-09T02:42:10.697Z,14.83
2023-02-09T02:45:16.025Z,14.37
2023-02-09T02:48:40.276Z,16.77
2023-02-09T02:51:46.548Z,14.90
2023-02-09T02:54:57.193Z,13.93
2023-02-09T02:58:00.397Z,14.67
2023-02-09T03:01:03.072Z,13.33
2023-02-09T03:04:05.265Z,13.53
2023-02-09T03:07:08.429Z,16.50
2023-02-09T03:10:24.445Z,15.17
2023-02-09T03:13:26.069Z,19.03
2023-02-09T03:16:32.207Z,20.57
2023-02-09T03:19:46.202Z,20.13
2023-02-09T03:22:49.008Z,16.20
2023-02-09T03:25:52.638Z,14.73
2023-02-09T03:28:56.289Z,16.40
2023-02-09T03:31:58.537Z,18.70
2023-02-09T03:35:00.354Z,18.60
2023-02-09T03:38:02.388Z,15.90
2023-02-09T03:41:03.977Z,15.60
2023-02-09T03:44:24.393Z,15.70
2023-02-09T03:47:25.980Z,14.33
2023-02-09T03:50:29.820Z,15.53
2023-02-09T03:53:31.503Z,17.60
2023-02-09T03:56:33.085Z,17.13
2023-02-09T03:59:35.533Z,17.67
2023-02-09T04:02:37.255Z,20.83
2023-02-09T04:05:38.974Z,19.00
2023-02-09T04:08:43.142Z,19.87
2023-02-09T04:11:45.069Z,19.50
2023-02-09T04:14:46.667Z,21.00
2023-02-09T04:17:50.733Z,19.37
2023-02-09T04:20:52.481Z,19.57
2023-02-09T04:23:54.076Z,17.57
2023-02-09T04:26:55.768Z,19.47
2023-02-09T04:29:57.376Z,16.80
2023-02-09T04:32:58.973Z,18.40
2023-02-09T04:36:00.610Z,16.27
2023-02-09T04:39:02.335Z,17.53
2023-02-09T04:42:03.989Z,18.23
2023-02-09T04:45:06.131Z,15.57
2023-02-09T04:48:08.748Z,15.40
2023-02-09T04:51:10.500Z,15.67
2023-02-09T04:54:12.057Z,16.10
2023-02-09T04:57:32.220Z,18.07
2023-02-09T05:00:33.927Z,20.43
2023-02-09T05:03:35.580Z,19.30
2023-02-09T05:06:37.204Z,20.90
2023-02-09T05:09:38.776Z,22.40
2023-02-09T05:12:40.928Z,26.27
2023-02-09T05:15:42.587Z,25.03
2023-02-09T05:18:44.664Z,26.47
2023-02-09T05:21:46.424Z,26.20
2023-02-09T05:24:48.082Z,26.63
2023-02-09T05:27:49.719Z,26.47
2023-02-09T05:30:53.847Z,22.53
2023-02-09T05:33:55.598Z,22.47
2023-02-09T05:36:57.153Z,22.20
2023-02-09T05:39:58.813Z,20.27
2023-02-09T05:43:02.478Z,23.13
2023-02-09T05:46:06.389Z,25.97
2023-02-09T05:49:10.699Z,28.80
2023-02-09T05:52:16.755Z,29.97
2023-02-09T05:55:18.488Z,31.40
2023-02-09T05:58:20.091Z,25.73
2023-02-09T06:01:21.821Z,31.10
2023-02-09T06:04:25.292Z,27.70
2023-02-09T06:07:26.949Z,27.87
2023-02-09T06:10:28.664Z,27.27
2023-02-09T06:13:30.323Z,32.30
2023-02-09T06:16:32.267Z,28.17
2023-02-09T06:19:33.944Z,26.13
2023-02-09T06:22:35.582Z,26.57
2023-02-09T06:25:38.742Z,25.73
2023-02-09T06:28:40.931Z,21.83
2023-02-09T06:31:42.653Z,23.37
2023-02-09T06:34:44.347Z,30.40
2023-02-09T06:37:46.026Z,40.93
2023-02-09T06:40:47.851Z,23.63
2023-02-09T06:43:49.658Z,30.90
2023-02-09T06:46:51.394Z,28.30
2023-02-09T06:49:52.980Z,26.43
2023-02-09T06:52:54.701Z,28.47
2023-02-09T06:55:59.703Z,27.20
2023-02-09T06:59:01.369Z,33.43
2023-02-09T07:02:03.084Z,38.00
2023-02-09T07:05:05.876Z,27.57
2023-02-09T07:08:07.859Z,34.13
2023-02-09T07:11:11.836Z,27.70
2023-02-09T07:14:13.470Z,26.53
2023-02-09T07:17:15.098Z,26.27
2023-02-09T07:20:16.747Z,28.83
2023-02-09T07:23:18.391Z,32.37
2023-02-09T07:26:20.044Z,32.77
2023-02-09T07:29:21.648Z,29.10
2023-02-09T07:32:23.990Z,30.17
2023-02-09T07:35:25.712Z,31.50
2023-02-09T07:38:27.495Z,31.17
2023-02-09T07:41:29.543Z,28.27
2023-02-09T07:44:31.142Z,26.83
2023-02-09T07:47:34.228Z,31.27
2023-02-09T07:50:35.882Z,27.20
2023-02-09T07:53:37.530Z,30.90
2023-02-09T07:56:39.593Z,32.93
2023-02-09T07:59:41.315Z,32.83
2023-02-09T08:02:43.506Z,40.97
2023-02-09T08:05:51.160Z,41.03
2023-02-09T08:08:53.368Z,34.03
2023-02-09T08:11:58.057Z,31.63
2023-02-09T08:14:59.689Z,27.33
2023-02-09T08:18:03.122Z,22.60
2023-02-09T08:21:05.935Z,12.83
2023-02-09T08:24:08.063Z,15.20
2023-02-09T08:27:10.040Z,26.30
2023-02-09T08:30:12.897Z,20.83
2023-02-09T08:33:14.561Z,23.20
2023-02-09T08:36:16.663Z,20.37
2023-02-09T08:39:18.326Z,27.43
2023-02-09T08:42:19.955Z,24.37
2023-02-09T08:45:21.963Z,15.90
2023-02-09T08:48:23.698Z,53.57
2023-02-09T08:51:25.287Z,23.10
2023-02-09T08:54:27.135Z,11.80
2023-02-09T08:57:42.771Z,12.13
2023-02-09T09:00:45.541Z,15.77
2023-02-09T09:03:47.318Z,32.73
2023-02-09T09:09:56.506Z,11.80
2023-02-09T09:12:58.243Z,21.37
2023-02-09T09:15:59.926Z,12.63
2023-02-09T09:19:01.495Z,12.70
2023-02-09T09:22:03.719Z,10.80
2023-02-09T09:25:05.767Z,15.53
2023-02-09T09:28:07.984Z,11.43
2023-02-09T09:31:11.200Z,16.93
2023-02-09T09:34:12.926Z,17.27
2023-02-09T09:37:14.565Z,13.83
2023-02-09T09:40:21.361Z,14.97
2023-02-09T09:43:34.702Z,16.40
2023-02-09T09:46:38.595Z,12.33
2023-02-09T09:49:40.478Z,19.80
2023-02-09T09:52:43.443Z,9.90
2023-02-09T09:55:45.574Z,8.00
2023-02-09T09:58:47.424Z,14.67
2023-02-09T10:01:50.658Z,13.27
2023-02-09T10:04:52.560Z,17.37
2023-02-09T10:07:54.623Z,9.97
2023-02-09T10:10:56.410Z,19.23
2023-02-09T10:13:58.263Z,13.53
2023-02-09T10:16:59.889Z,13.63
2023-02-09T10:20:03.873Z,11.50
2023-02-09T10:23:05.458Z,13.27
2023-02-09T10:26:07.055Z,15.73
2023-02-09T10:29:11.787Z,14.70
2023-02-09T10:32:15.284Z,17.53
2023-02-09T10:35:27.436Z,14.33
2023-02-09T10:38:33.157Z,12.40
2023-02-09T10:41:35.335Z,13.60
2023-02-09T10:44:40.194Z,11.47
2023-02-09T10:47:42.038Z,21.37
2023-02-09T10:50:49.779Z,14.97
2023-02-09T10:54:08.047Z,12.87
2023-02-09T10:57:26.726Z,8.37
2023-02-09T11:00:30.228Z,11.33
2023-02-09T11:03:33.167Z,11.40
2023-02-09T11:06:48.541Z,12.27
2023-02-09T11:09:51.437Z,22.73
2023-02-09T11:12:53.065Z,16.30
2023-02-09T11:16:16.149Z,9.70
2023-02-09T11:19:22.756Z,12.03
2023-02-09T11:22:47.505Z,10.23
2023-02-09T11:25:53.363Z,7.93
2023-02-09T11:29:18.061Z,8.87
2023-02-09T11:32:24.236Z,8.60
2023-02-09T11:35:28.458Z,7.27
2023-02-09T11:38:46.641Z,9.67
2023-02-09T11:42:33.377Z,9.80
2023-02-09T11:45:37.670Z,13.23
2023-02-09T11:48:43.490Z,8.47
2023-02-09T11:51:46.863Z,21.00
2023-02-09T11:54:50.624Z,19.70
2023-02-09T11:57:54.620Z,18.83
2023-02-09T12:01:14.361Z,30.27
2023-02-09T12:04:16.959Z,18.37
2023-02-09T12:07:27.701Z,12.03
2023-02-09T12:10:35.402Z,17.27
2023-02-09T12:13:45.898Z,20.20
2023-02-09T12:16:50.503Z,15.33
2023-02-09T12:19:59.509Z,16.57
2023-02-09T12:23:19.953Z,16.80
2023-02-09T12:26:21.533Z,16.17
2023-02-09T12:29:23.209Z,13.20
2023-02-09T12:32:26.739Z,13.73
2023-02-09T12:35:37.275Z,11.90
2023-02-09T12:38:55.917Z,10.50
2023-02-09T12:42:01.313Z,12.47
2023-02-09T12:45:24.148Z,26.10
2023-02-09T12:48:25.866Z,12.13
2023-02-09T12:51:42.254Z,11.33
2023-02-09T12:54:46.910Z,15.83
2023-02-09T12:57:49.847Z,26.90
2023-02-09T13:00:53.733Z,43.97
2023-02-09T13:04:04.398Z,40.17
2023-02-09T13:07:07.751Z,13.80
2023-02-09T13:10:18.695Z,21.43
2023-02-09T13:13:24.950Z,12.33
2023-02-09T13:16:29.744Z,12.67
2023-02-09T13:19:48.164Z,9.93
2023-02-09T13:22:53.183Z,18.63
2023-02-09T13:26:00.533Z,13.63
2023-02-09T13:29:20.243Z,11.67
2023-02-09T13:32:35.102Z,17.70
2023-02-09T13:35:40.495Z,16.93
2023-02-09T13:38:42.339Z,12.33
2023-02-09T13:41:44.711Z,11.40
2023-02-09T13:44:46.961Z,10.10
2023-02-09T13:47:48.646Z,9.70
2023-02-09T13:50:51.219Z,9.83
2023-02-09T13:53:56.882Z,8.33
2023-02-09T13:57:00.681Z,11.20
2023-02-09T14:00:08.822Z,10.73
2023-02-09T14:03:24.491Z,11.27
2023-02-09T14:06:41.597Z,8.43
2023-02-09T14:09:49.184Z,16.47
2023-02-09T14:12:56.515Z,10.87
2023-02-09T14:16:08.743Z,14.53
2023-02-09T14:19:31.876Z,27.30
2023-02-09T14:22:35.496Z,26.47
2023-02-09T14:25:37.352Z,16.50
2023-02-09T14:28:38.908Z,12.43
2023-02-09T14:31:49.275Z,17.67
2023-02-09T14:34:51.123Z,12.03
2023-02-09T14:37:53.961Z,15.03
2023-02-09T14:40:55.629Z,16.03
2023-02-09T14:44:02.328Z,15.47
2023-02-09T14:47:03.981Z,16.03
2023-02-09T14:50:15.853Z,14.07
2023-02-09T14:53:25.607Z,11.10
2023-02-09T14:56:30.815Z,23.23
2023-02-09T14:59:32.469Z,19.40
2023-02-09T15:02:34.272Z,19.70
2023-02-09T15:05:36.706Z,20.20
2023-02-09T15:08:39.290Z,22.83
2023-02-09T15:11:59.301Z,20.50
2023-02-09T15:15:01.479Z,16.20
2023-02-09T15:18:03.157Z,21.43
2023-02-09T15:21:04.837Z,23.73
2023-02-09T15:24:06.478Z,32.90
2023-02-09T15:27:17.240Z,31.03
2023-02-09T15:30:19.140Z,25.80
2023-02-09T15:33:20.806Z,24.43
2023-02-09T15:36:22.695Z,28.80
2023-02-09T15:39:25.208Z,32.77
2023-02-09T15:42:45.492Z,25.33
2023-02-09T15:45:50.002Z,19.53
2023-02-09T15:48:51.688Z,16.30
2023-02-09T15:51:53.473Z,18.40
2023-02-09T15:54:55.200Z,15.40
2023-02-09T16:01:13.521Z,11.90
2023-02-09T16:04:18.346Z,16.70
2023-02-09T16:07:24.946Z,31.13
2023-02-09T16:10:27.608Z,33.33
2023-02-09T16:13:29.288Z,37.57
2023-02-09T16:16:31.876Z,106.87
2023-02-09T16:19:33.614Z,90.77
2023-02-09T16:22:35.781Z,40.17
2023-02-09T16:25:37.452Z,31.47
2023-02-09T16:28:39.260Z,57.17
2023-02-09T16:31:41.291Z,61.50
2023-02-09T16:34:43.193Z,62.03
2023-02-09T16:37:45.552Z,47.27
2023-02-09T16:40:47.223Z,49.33
2023-02-09T16:43:48.887Z,62.83
2023-02-09T16:46:55.236Z,52.47
2023-02-09T16:50:01.311Z,54.60
2023-02-09T16:53:09.932Z,51.43
2023-02-09T16:56:12.327Z,52.93
2023-02-09T16:59:13.978Z,52.30
2023-02-09T17:02:33.724Z,50.10
2023-02-09T17:05:37.146Z,45.47
2023-02-09T17:08:39.289Z,53.13
2023-02-09T17:11:40.987Z,55.00
2023-02-09T17:14:42.560Z,48.37
2023-02-09T17:17:45.942Z,52.07
2023-02-09T17:20:53.439Z,43.47
2023-02-09T17:23:57.467Z,45.40
2023-02-09T17:26:59.208Z,43.80
2023-02-09T17:30:00.929Z,48.93
2023-02-09T17:33:03.648Z,48.13
2023-02-09T17:39:28.450Z,46.40
2023-02-09T17:42:31.303Z,54.67
2023-02-09T17:45:35.153Z,49.03
2023-02-09T17:48:36.885Z,43.93
2023-02-09T17:51:40.346Z,47.47
2023-02-09T17:54:49.366Z,41.40
2023-02-09T17:57:51.279Z,43.03
2023-02-09T18:00:53.392Z,51.87
2023-02-09T18:03:55.673Z,54.53
2023-02-09T18:06:58.306Z,46.90
2023-02-09T18:10:00.118Z,46.73
2023-02-09T18:13:01.938Z,38.17
2023-02-09T18:16:03.611Z,47.53
2023-02-09T18:19:05.255Z,50.30
2023-02-09T18:22:06.929Z,40.20
2023-02-09T18:25:15.007Z,53.53
2023-02-09T18:28:16.982Z,45.50
2023-02-09T18:31:19.477Z,40.77
2023-02-09T18:34:23.938Z,38.00
2023-02-09T18:37:25.617Z,33.93
2023-02-09T18:40:27.460Z,36.30
2023-02-09T18:43:29.093Z,33.13
2023-02-09T18:46:30.746Z,38.33
2023-02-09T18:49:32.540Z,37.57
2023-02-09T18:52:34.820Z,40.13
2023-02-09T18:55:36.501Z,23.37
2023-02-09T18:58:38.800Z,23.63
2023-02-09T19:01:41.130Z,32.70
2023-02-09T19:04:43.872Z,27.00
2023-02-09T19:07:46.172Z,33.67
2023-02-09T19:10:47.878Z,30.30
2023-02-09T19:14:08.246Z,29.50
2023-02-09T19:17:13.347Z,26.63
2023-02-09T19:20:20.548Z,25.77
2023-02-09T19:23:23.494Z,29.73
2023-02-09T19:26:25.132Z,26.77
2023-02-09T19:29:28.692Z,20.93
2023-02-09T19:32:30.321Z,23.93
2023-02-09T19:35:32.017Z,23.13
2023-02-09T19:38:33.650Z,19.07
2023-02-09T19:41:35.488Z,25.60
2023-02-09T19:44:37.164Z,25.00
2023-02-09T19:47:38.916Z,28.53
2023-02-09T19:50:40.608Z,24.07
2023-02-09T19:53:42.181Z,26.80
2023-02-09T19:56:45.335Z,29.23
2023-02-09T19:59:47.103Z,25.50
2023-02-09T20:02:49.326Z,24.37
2023-02-09T20:05:51.209Z,24.57
2023-02-09T20:08:52.809Z,26.13
2023-02-09T20:11:54.643Z,17.70
2023-02-09T20:14:56.288Z,25.77
2023-02-09T20:17:58.140Z,28.37
2023-02-09T20:20:59.812Z,23.87
2023-02-09T20:24:01.510Z,22.53
2023-02-09T20:27:03.328Z,22.60
2023-02-09T20:30:05.727Z,27.13
2023-02-09T20:33:10.360Z,22.90
2023-02-09T20:36:11.973Z,24.63
2023-02-09T20:39:16.187Z,21.93
2023-02-09T20:42:36.643Z,17.57
2023-02-09T20:45:57.185Z,13.97
2023-02-09T20:48:58.876Z,17.83
2023-02-09T20:52:00.503Z,19.10
2023-02-09T20:55:02.138Z,13.40
2023-02-09T20:58:04.049Z,18.77
2023-02-09T21:01:08.744Z,11.37
2023-02-09T21:04:10.407Z,11.87
2023-02-09T21:07:12.950Z,14.57
2023-02-09T21:10:15.960Z,16.90
2023-02-09T21:13:17.542Z,21.53
2023-02-09T21:16:20.557Z,17.83
2023-02-09T21:19:23.889Z,13.40
2023-02-09T21:22:25.552Z,15.00
2023-02-09T21:25:27.841Z,11.67
2023-02-09T21:28:29.568Z,12.43
2023-02-09T21:31:31.269Z,18.10
2023-02-09T21:34:32.885Z,18.33
2023-02-09T21:37:34.648Z,14.80
2023-02-09T21:40:36.427Z,16.87
2023-02-09T21:43:38.208Z,12.10
2023-02-09T21:46:39.827Z,11.20
2023-02-09T21:49:41.474Z,10.33
2023-02-09T21:52:43.073Z,17.60
2023-02-09T21:55:44.727Z,23.40
2023-02-09T21:58:46.686Z,15.43
2023-02-09T22:01:48.230Z,14.80
2023-02-09T22:04:53.024Z,13.47
2023-02-09T22:07:54.745Z,18.37
2023-02-09T22:10:59.492Z,17.67
2023-02-09T22:14:01.247Z,13.93
2023-02-09T22:17:03.112Z,17.77
2023-02-09T22:20:05.136Z,8.73
2023-02-09T22:23:07.114Z,15.83
2023-02-09T22:26:09.961Z,14.67
2023-02-09T22:29:12.727Z,12.00
2023-02-09T22:32:14.345Z,16.60
2023-02-09T22:35:15.976Z,16.20
2023-02-09T22:38:17.608Z,13.83
2023-02-09T22:41:23.197Z,11.53
2023-02-09T22:44:26.663Z,10.83
2023-02-09T22:47:28.336Z,11.90
2023-02-09T22:50:30.006Z,9.90
2023-02-09T22:53:31.766Z,10.07
2023-02-09T22:56:33.754Z,12.30
2023-02-09T22:59:36.324Z,12.63
2023-02-09T23:02:37.900Z,7.97
2023-02-09T23:05:39.480Z,9.73
2023-02-09T23:08:41.170Z,11.47
2023-02-09T23:11:44.188Z,13.47
2023-02-09T23:14:45.914Z,12.33
2023-02-09T23:17:47.568Z,15.87
2023-02-09T23:20:49.686Z,6.60
2023-02-09T23:23:51.639Z,17.17
2023-02-09T23:26:55.017Z,16.70
2023-02-09T23:29:56.618Z,15.33
2023-02-09T23:32:58.235Z,20.13
2023-02-09T23:36:02.533Z,18.90
2023-02-09T23:39:05.485Z,17.27
2023-02-09T23:42:07.109Z,20.10
2023-02-09T23:45:08.919Z,17.60
2023-02-09T23:48:10.497Z,20.80
2023-02-09T23:51:14.150Z,19.93
2023-02-09T23:54:15.733Z,18.20
2023-02-09T23:57:17.952Z,16.87
